sensor_id;sensor_type;location;lat;lon;timestamp;temperature;humidity
73643;DHT22;61938;48.652;9.292;2023-05-27T00:02:15;14.50;99.90
73643;DHT22;61938;48.652;9.292;2023-05-27T00:04:41;14.40;99.90
73643;DHT22;61938;48.652;9.292;2023-05-27T00:07:06;14.40;99.90
73643;DHT22;61938;48.652;9.292;2023-05-27T00:09:32;14.40;99.90
73643;DHT22;61938;48.652;9.292;2023-05-27T00:11:58;14.40;99.90
73643;DHT22;61938;48.652;9.292;2023-05-27T00:14:23;14.30;99.90
73643;DHT22;61938;48.652;9.292;2023-05-27T00:16:49;14.30;99.90
73643;DHT22;61938;48.652;9.292;2023-05-27T00:19:16;14.20;99.90
73643;DHT22;61938;48.652;9.292;2023-05-27T00:21:42;14.20;99.90
73643;DHT22;61938;48.652;9.292;2023-05-27T00:24:08;14.20;99.90
73643;DHT22;61938;48.652;9.292;2023-05-27T00:26:34;14.10;99.90
73643;DHT22;61938;48.652;9.292;2023-05-27T00:28:59;14.10;99.90
73643;DHT22;61938;48.652;9.292;2023-05-27T00:31:25;14.10;99.90
73643;DHT22;61938;48.652;9.292;2023-05-27T00:33:50;14.00;99.90
73643;DHT22;61938;48.652;9.292;2023-05-27T00:36:16;14.00;99.90
73643;DHT22;61938;48.652;9.292;2023-05-27T00:38:42;13.90;99.90
73643;DHT22;61938;48.652;9.292;2023-05-27T00:41:10;13.90;99.90
73643;DHT22;61938;48.652;9.292;2023-05-27T00:43:36;13.90;99.90
73643;DHT22;61938;48.652;9.292;2023-05-27T00:46:02;13.90;99.90
73643;DHT22;61938;48.652;9.292;2023-05-27T00:48:28;13.90;99.90
73643;DHT22;61938;48.652;9.292;2023-05-27T00:50:55;13.80;99.90
73643;DHT22;61938;48.652;9.292;2023-05-27T00:53:21;13.70;99.90
73643;DHT22;61938;48.652;9.292;2023-05-27T00:55:47;13.70;99.90
73643;DHT22;61938;48.652;9.292;2023-05-27T00:58:13;13.60;99.90
73643;DHT22;61938;48.652;9.292;2023-05-27T01:00:38;13.50;99.90
73643;DHT22;61938;48.652;9.292;2023-05-27T01:03:05;13.50;99.90
73643;DHT22;61938;48.652;9.292;2023-05-27T01:05:32;13.50;99.90
73643;DHT22;61938;48.652;9.292;2023-05-27T01:08:21;13.40;99.90
73643;DHT22;61938;48.652;9.292;2023-05-27T01:10:52;13.30;99.90
73643;DHT22;61938;48.652;9.292;2023-05-27T01:13:30;13.30;99.90
73643;DHT22;61938;48.652;9.292;2023-05-27T01:16:02;13.20;99.90
73643;DHT22;61938;48.652;9.292;2023-05-27T01:18:28;13.10;99.90
73643;DHT22;61938;48.652;9.292;2023-05-27T01:21:05;13.10;99.90
73643;DHT22;61938;48.652;9.292;2023-05-27T01:23:31;13.10;99.90
73643;DHT22;61938;48.652;9.292;2023-05-27T01:25:57;13.10;99.90
73643;DHT22;61938;48.652;9.292;2023-05-27T01:28:22;13.00;99.90
73643;DHT22;61938;48.652;9.292;2023-05-27T01:30:49;13.00;99.90
73643;DHT22;61938;48.652;9.292;2023-05-27T01:33:24;13.00;99.90
73643;DHT22;61938;48.652;9.292;2023-05-27T01:35:54;13.00;99.90
73643;DHT22;61938;48.652;9.292;2023-05-27T01:38:23;12.90;99.90
73643;DHT22;61938;48.652;9.292;2023-05-27T01:40:50;12.90;99.90
73643;DHT22;61938;48.652;9.292;2023-05-27T01:43:18;12.80;99.90
73643;DHT22;61938;48.652;9.292;2023-05-27T01:45:44;12.70;99.90
73643;DHT22;61938;48.652;9.292;2023-05-27T01:48:10;12.60;99.90
73643;DHT22;61938;48.652;9.292;2023-05-27T01:50:36;12.50;99.90
73643;DHT22;61938;48.652;9.292;2023-05-27T01:53:02;12.40;99.90
73643;DHT22;61938;48.652;9.292;2023-05-27T01:55:29;12.40;99.90
73643;DHT22;61938;48.652;9.292;2023-05-27T01:57:55;12.30;99.90
73643;DHT22;61938;48.652;9.292;2023-05-27T02:00:21;12.30;99.90
73643;DHT22;61938;48.652;9.292;2023-05-27T02:02:47;12.20;99.90
73643;DHT22;61938;48.652;9.292;2023-05-27T02:05:12;12.10;99.90
73643;DHT22;61938;48.652;9.292;2023-05-27T02:07:38;12.10;99.90
73643;DHT22;61938;48.652;9.292;2023-05-27T02:10:04;12.10;99.90
73643;DHT22;61938;48.652;9.292;2023-05-27T02:12:30;12.10;99.90
73643;DHT22;61938;48.652;9.292;2023-05-27T02:14:55;12.10;99.90
73643;DHT22;61938;48.652;9.292;2023-05-27T02:17:21;12.00;99.90
73643;DHT22;61938;48.652;9.292;2023-05-27T02:19:46;12.00;99.90
73643;DHT22;61938;48.652;9.292;2023-05-27T02:22:13;11.90;99.90
73643;DHT22;61938;48.652;9.292;2023-05-27T02:24:38;11.90;99.90
73643;DHT22;61938;48.652;9.292;2023-05-27T02:27:04;11.80;99.90
73643;DHT22;61938;48.652;9.292;2023-05-27T02:29:31;11.80;99.90
73643;DHT22;61938;48.652;9.292;2023-05-27T02:31:56;11.80;99.90
73643;DHT22;61938;48.652;9.292;2023-05-27T02:34:22;11.80;99.90
73643;DHT22;61938;48.652;9.292;2023-05-27T02:36:47;11.80;99.90
73643;DHT22;61938;48.652;9.292;2023-05-27T02:39:12;11.70;99.90
73643;DHT22;61938;48.652;9.292;2023-05-27T02:41:38;11.70;99.90
73643;DHT22;61938;48.652;9.292;2023-05-27T02:44:05;11.60;99.90
73643;DHT22;61938;48.652;9.292;2023-05-27T02:46:30;11.60;99.90
73643;DHT22;61938;48.652;9.292;2023-05-27T02:48:56;11.60;99.90
73643;DHT22;61938;48.652;9.292;2023-05-27T02:51:21;11.50;99.90
73643;DHT22;61938;48.652;9.292;2023-05-27T02:53:48;11.50;99.90
73643;DHT22;61938;48.652;9.292;2023-05-27T02:56:13;11.50;99.90
73643;DHT22;61938;48.652;9.292;2023-05-27T02:58:38;11.50;99.90
73643;DHT22;61938;48.652;9.292;2023-05-27T03:01:04;11.50;99.90
73643;DHT22;61938;48.652;9.292;2023-05-27T03:03:30;11.50;99.90
73643;DHT22;61938;48.652;9.292;2023-05-27T03:05:56;11.50;99.90
73643;DHT22;61938;48.652;9.292;2023-05-27T03:08:21;11.50;99.90
73643;DHT22;61938;48.652;9.292;2023-05-27T03:10:48;11.50;99.90
73643;DHT22;61938;48.652;9.292;2023-05-27T03:13:13;11.50;99.90
73643;DHT22;61938;48.652;9.292;2023-05-27T03:15:39;11.50;99.90
73643;DHT22;61938;48.652;9.292;2023-05-27T03:18:05;11.40;99.90
73643;DHT22;61938;48.652;9.292;2023-05-27T03:20:30;11.50;99.90
73643;DHT22;61938;48.652;9.292;2023-05-27T03:22:56;11.40;99.90
73643;DHT22;61938;48.652;9.292;2023-05-27T03:25:21;11.40;99.90
73643;DHT22;61938;48.652;9.292;2023-05-27T03:27:47;11.40;99.90
73643;DHT22;61938;48.652;9.292;2023-05-27T03:30:13;11.40;99.90
73643;DHT22;61938;48.652;9.292;2023-05-27T03:32:38;11.50;99.90
73643;DHT22;61938;48.652;9.292;2023-05-27T03:35:04;11.20;99.90
73643;DHT22;61938;48.652;9.292;2023-05-27T03:37:30;11.20;99.90
73643;DHT22;61938;48.652;9.292;2023-05-27T03:39:55;11.10;99.90
73643;DHT22;61938;48.652;9.292;2023-05-27T03:42:21;11.10;99.90
73643;DHT22;61938;48.652;9.292;2023-05-27T03:44:46;11.00;99.90
73643;DHT22;61938;48.652;9.292;2023-05-27T03:47:12;11.00;99.90
73643;DHT22;61938;48.652;9.292;2023-05-27T03:49:37;11.00;99.90
73643;DHT22;61938;48.652;9.292;2023-05-27T03:52:03;11.00;99.90
73643;DHT22;61938;48.652;9.292;2023-05-27T03:54:29;11.00;99.90
73643;DHT22;61938;48.652;9.292;2023-05-27T03:56:55;11.00;99.90
73643;DHT22;61938;48.652;9.292;2023-05-27T03:59:20;11.00;99.90
73643;DHT22;61938;48.652;9.292;2023-05-27T04:01:46;11.00;99.90
73643;DHT22;61938;48.652;9.292;2023-05-27T04:04:12;10.90;99.90
73643;DHT22;61938;48.652;9.292;2023-05-27T04:06:38;10.90;99.90
73643;DHT22;61938;48.652;9.292;2023-05-27T04:09:04;10.90;99.90
73643;DHT22;61938;48.652;9.292;2023-05-27T04:11:30;10.90;99.90
73643;DHT22;61938;48.652;9.292;2023-05-27T04:13:55;10.80;99.90
73643;DHT22;61938;48.652;9.292;2023-05-27T04:16:21;10.90;99.90
73643;DHT22;61938;48.652;9.292;2023-05-27T04:18:47;10.90;99.90
73643;DHT22;61938;48.652;9.292;2023-05-27T04:21:16;11.00;99.90
73643;DHT22;61938;48.652;9.292;2023-05-27T04:23:41;11.00;99.90
73643;DHT22;61938;48.652;9.292;2023-05-27T04:26:07;11.10;99.90
73643;DHT22;61938;48.652;9.292;2023-05-27T04:28:33;11.20;99.90
73643;DHT22;61938;48.652;9.292;2023-05-27T04:30:59;11.30;99.90
73643;DHT22;61938;48.652;9.292;2023-05-27T04:33:25;11.40;99.90
73643;DHT22;61938;48.652;9.292;2023-05-27T04:35:51;11.50;99.90
73643;DHT22;61938;48.652;9.292;2023-05-27T04:38:21;11.60;99.90
73643;DHT22;61938;48.652;9.292;2023-05-27T04:40:50;11.60;99.90
73643;DHT22;61938;48.652;9.292;2023-05-27T04:43:18;11.70;99.90
73643;DHT22;61938;48.652;9.292;2023-05-27T04:45:44;11.80;99.90
73643;DHT22;61938;48.652;9.292;2023-05-27T04:48:10;11.90;99.90
73643;DHT22;61938;48.652;9.292;2023-05-27T04:50:36;12.00;99.90
73643;DHT22;61938;48.652;9.292;2023-05-27T04:53:01;12.10;99.90
73643;DHT22;61938;48.652;9.292;2023-05-27T04:55:27;12.30;99.90
73643;DHT22;61938;48.652;9.292;2023-05-27T04:57:53;12.40;99.90
73643;DHT22;61938;48.652;9.292;2023-05-27T05:00:19;12.50;99.90
73643;DHT22;61938;48.652;9.292;2023-05-27T05:03:01;12.50;99.90
73643;DHT22;61938;48.652;9.292;2023-05-27T05:05:27;12.80;99.90
73643;DHT22;61938;48.652;9.292;2023-05-27T05:07:53;12.90;99.90
73643;DHT22;61938;48.652;9.292;2023-05-27T05:10:18;13.00;99.90
73643;DHT22;61938;48.652;9.292;2023-05-27T05:12:44;13.20;99.90
73643;DHT22;61938;48.652;9.292;2023-05-27T05:15:09;13.30;99.90
73643;DHT22;61938;48.652;9.292;2023-05-27T05:17:35;13.40;99.90
73643;DHT22;61938;48.652;9.292;2023-05-27T05:20:00;13.60;99.90
73643;DHT22;61938;48.652;9.292;2023-05-27T05:22:26;13.70;99.90
73643;DHT22;61938;48.652;9.292;2023-05-27T05:24:53;13.80;99.90
73643;DHT22;61938;48.652;9.292;2023-05-27T05:27:19;14.00;99.90
73643;DHT22;61938;48.652;9.292;2023-05-27T05:29:44;14.10;99.90
73643;DHT22;61938;48.652;9.292;2023-05-27T05:32:10;14.30;99.90
73643;DHT22;61938;48.652;9.292;2023-05-27T05:34:37;14.40;99.90
73643;DHT22;61938;48.652;9.292;2023-05-27T05:37:02;14.50;99.90
73643;DHT22;61938;48.652;9.292;2023-05-27T05:39:28;14.50;99.90
73643;DHT22;61938;48.652;9.292;2023-05-27T05:41:53;14.90;99.90
73643;DHT22;61938;48.652;9.292;2023-05-27T05:44:19;15.00;99.90
73643;DHT22;61938;48.652;9.292;2023-05-27T05:46:44;15.00;99.90
73643;DHT22;61938;48.652;9.292;2023-05-27T05:49:10;15.00;99.90
73643;DHT22;61938;48.652;9.292;2023-05-27T05:51:36;15.10;99.90
73643;DHT22;61938;48.652;9.292;2023-05-27T05:54:01;15.10;99.90
73643;DHT22;61938;48.652;9.292;2023-05-27T05:56:27;15.20;99.90
73643;DHT22;61938;48.652;9.292;2023-05-27T05:58:52;15.30;99.90
73643;DHT22;61938;48.652;9.292;2023-05-27T06:01:18;15.50;99.90
73643;DHT22;61938;48.652;9.292;2023-05-27T06:03:44;15.60;99.90
73643;DHT22;61938;48.652;9.292;2023-05-27T06:06:09;15.70;99.90
73643;DHT22;61938;48.652;9.292;2023-05-27T06:08:35;16.00;99.90
73643;DHT22;61938;48.652;9.292;2023-05-27T06:11:01;16.10;99.90
73643;DHT22;61938;48.652;9.292;2023-05-27T06:13:27;16.20;99.90
73643;DHT22;61938;48.652;9.292;2023-05-27T06:15:52;16.20;99.90
73643;DHT22;61938;48.652;9.292;2023-05-27T06:18:17;16.30;99.90
73643;DHT22;61938;48.652;9.292;2023-05-27T06:20:43;16.50;99.90
73643;DHT22;61938;48.652;9.292;2023-05-27T06:23:09;16.50;99.90
73643;DHT22;61938;48.652;9.292;2023-05-27T06:25:34;16.60;99.90
73643;DHT22;61938;48.652;9.292;2023-05-27T06:28:00;16.80;99.90
73643;DHT22;61938;48.652;9.292;2023-05-27T06:30:26;16.80;99.90
73643;DHT22;61938;48.652;9.292;2023-05-27T06:32:52;17.20;99.90
73643;DHT22;61938;48.652;9.292;2023-05-27T06:35:17;17.20;99.90
73643;DHT22;61938;48.652;9.292;2023-05-27T06:37:43;17.30;99.90
73643;DHT22;61938;48.652;9.292;2023-05-27T06:40:09;17.40;99.90
73643;DHT22;61938;48.652;9.292;2023-05-27T06:42:36;17.30;99.90
73643;DHT22;61938;48.652;9.292;2023-05-27T06:45:01;17.50;99.90
73643;DHT22;61938;48.652;9.292;2023-05-27T06:47:27;17.80;99.90
73643;DHT22;61938;48.652;9.292;2023-05-27T06:49:52;17.80;99.90
73643;DHT22;61938;48.652;9.292;2023-05-27T06:52:18;18.00;99.90
73643;DHT22;61938;48.652;9.292;2023-05-27T06:54:44;18.10;99.90
73643;DHT22;61938;48.652;9.292;2023-05-27T06:57:09;18.30;99.90
73643;DHT22;61938;48.652;9.292;2023-05-27T06:59:35;18.40;99.90
73643;DHT22;61938;48.652;9.292;2023-05-27T07:02:00;18.60;99.90
73643;DHT22;61938;48.652;9.292;2023-05-27T07:04:26;18.80;99.90
73643;DHT22;61938;48.652;9.292;2023-05-27T07:06:52;18.90;99.90
73643;DHT22;61938;48.652;9.292;2023-05-27T07:09:17;19.10;99.90
73643;DHT22;61938;48.652;9.292;2023-05-27T07:11:43;19.20;99.90
73643;DHT22;61938;48.652;9.292;2023-05-27T07:14:08;19.30;99.90
73643;DHT22;61938;48.652;9.292;2023-05-27T07:16:36;19.30;99.90
73643;DHT22;61938;48.652;9.292;2023-05-27T07:19:02;19.30;99.90
73643;DHT22;61938;48.652;9.292;2023-05-27T07:21:28;19.40;99.90
73643;DHT22;61938;48.652;9.292;2023-05-27T07:23:53;19.30;99.90
73643;DHT22;61938;48.652;9.292;2023-05-27T07:26:19;19.30;99.90
73643;DHT22;61938;48.652;9.292;2023-05-27T07:28:46;19.40;99.90
73643;DHT22;61938;48.652;9.292;2023-05-27T07:31:11;19.40;99.90
73643;DHT22;61938;48.652;9.292;2023-05-27T07:33:37;19.80;99.90
73643;DHT22;61938;48.652;9.292;2023-05-27T07:36:02;20.00;99.90
73643;DHT22;61938;48.652;9.292;2023-05-27T07:38:28;20.20;99.90
73643;DHT22;61938;48.652;9.292;2023-05-27T07:40:53;20.30;99.90
73643;DHT22;61938;48.652;9.292;2023-05-27T07:43:19;20.50;99.90
73643;DHT22;61938;48.652;9.292;2023-05-27T07:45:45;20.70;99.90
73643;DHT22;61938;48.652;9.292;2023-05-27T07:48:10;20.00;99.90
73643;DHT22;61938;48.652;9.292;2023-05-27T07:50:35;20.30;99.90
73643;DHT22;61938;48.652;9.292;2023-05-27T07:53:01;20.50;99.90
73643;DHT22;61938;48.652;9.292;2023-05-27T07:55:26;20.80;99.90
73643;DHT22;61938;48.652;9.292;2023-05-27T07:57:54;21.00;99.90
73643;DHT22;61938;48.652;9.292;2023-05-27T08:00:20;21.10;99.90
73643;DHT22;61938;48.652;9.292;2023-05-27T08:02:46;21.30;99.90
73643;DHT22;61938;48.652;9.292;2023-05-27T08:05:11;21.40;99.90
73643;DHT22;61938;48.652;9.292;2023-05-27T08:07:37;21.60;99.90
73643;DHT22;61938;48.652;9.292;2023-05-27T08:10:03;21.80;99.90
73643;DHT22;61938;48.652;9.292;2023-05-27T08:12:29;22.00;99.90
73643;DHT22;61938;48.652;9.292;2023-05-27T08:14:54;21.80;99.90
73643;DHT22;61938;48.652;9.292;2023-05-27T08:17:20;21.60;99.90
73643;DHT22;61938;48.652;9.292;2023-05-27T08:19:45;21.60;99.90
73643;DHT22;61938;48.652;9.292;2023-05-27T08:22:11;21.90;99.90
73643;DHT22;61938;48.652;9.292;2023-05-27T08:24:37;21.80;99.90
73643;DHT22;61938;48.652;9.292;2023-05-27T08:27:04;22.00;99.90
73643;DHT22;61938;48.652;9.292;2023-05-27T08:29:32;22.20;99.90
73643;DHT22;61938;48.652;9.292;2023-05-27T08:31:58;22.30;99.90
73643;DHT22;61938;48.652;9.292;2023-05-27T08:34:24;22.40;99.90
73643;DHT22;61938;48.652;9.292;2023-05-27T08:36:51;21.90;99.90
73643;DHT22;61938;48.652;9.292;2023-05-27T08:39:16;22.20;99.90
73643;DHT22;61938;48.652;9.292;2023-05-27T08:41:42;22.20;99.90
73643;DHT22;61938;48.652;9.292;2023-05-27T08:44:08;22.40;99.90
73643;DHT22;61938;48.652;9.292;2023-05-27T08:46:34;22.40;99.90
73643;DHT22;61938;48.652;9.292;2023-05-27T08:49:01;22.90;99.90
73643;DHT22;61938;48.652;9.292;2023-05-27T08:51:27;22.80;99.90
73643;DHT22;61938;48.652;9.292;2023-05-27T08:53:53;23.00;98.90
73643;DHT22;61938;48.652;9.292;2023-05-27T08:56:22;22.80;99.90
73643;DHT22;61938;48.652;9.292;2023-05-27T08:58:48;23.10;99.90
73643;DHT22;61938;48.652;9.292;2023-05-27T09:01:17;23.50;99.90
73643;DHT22;61938;48.652;9.292;2023-05-27T09:03:44;23.50;98.50
73643;DHT22;61938;48.652;9.292;2023-05-27T09:06:09;23.50;98.80
73643;DHT22;61938;48.652;9.292;2023-05-27T09:08:35;23.40;99.40
73643;DHT22;61938;48.652;9.292;2023-05-27T09:11:00;23.60;98.70
73643;DHT22;61938;48.652;9.292;2023-05-27T09:13:30;23.80;96.60
73643;DHT22;61938;48.652;9.292;2023-05-27T09:15:59;24.00;95.90
73643;DHT22;61938;48.652;9.292;2023-05-27T09:18:30;23.90;96.20
73643;DHT22;61938;48.652;9.292;2023-05-27T09:20:56;24.10;96.10
73643;DHT22;61938;48.652;9.292;2023-05-27T09:23:22;24.20;96.20
73643;DHT22;61938;48.652;9.292;2023-05-27T09:25:48;24.10;95.00
73643;DHT22;61938;48.652;9.292;2023-05-27T09:30:51;24.50;95.70
73643;DHT22;61938;48.652;9.292;2023-05-27T09:33:22;24.50;94.50
73643;DHT22;61938;48.652;9.292;2023-05-27T09:35:48;24.90;97.60
73643;DHT22;61938;48.652;9.292;2023-05-27T09:38:13;25.10;97.30
73643;DHT22;61938;48.652;9.292;2023-05-27T09:40:39;25.10;93.30
73643;DHT22;61938;48.652;9.292;2023-05-27T09:43:06;24.80;92.10
73643;DHT22;61938;48.652;9.292;2023-05-27T09:45:33;24.80;92.70
73643;DHT22;61938;48.652;9.292;2023-05-27T09:48:00;24.80;93.50
73643;DHT22;61938;48.652;9.292;2023-05-27T09:50:27;24.80;94.30
73643;DHT22;61938;48.652;9.292;2023-05-27T09:52:53;24.70;92.10
73643;DHT22;61938;48.652;9.292;2023-05-27T09:55:20;24.60;94.50
73643;DHT22;61938;48.652;9.292;2023-05-27T09:57:46;24.60;92.70
73643;DHT22;61938;48.652;9.292;2023-05-27T10:00:12;24.70;93.00
73643;DHT22;61938;48.652;9.292;2023-05-27T10:02:40;25.00;92.00
73643;DHT22;61938;48.652;9.292;2023-05-27T10:05:07;25.10;91.60
73643;DHT22;61938;48.652;9.292;2023-05-27T10:07:36;25.20;91.00
73643;DHT22;61938;48.652;9.292;2023-05-27T10:10:07;25.20;91.50
73643;DHT22;61938;48.652;9.292;2023-05-27T10:12:34;25.20;92.70
73643;DHT22;61938;48.652;9.292;2023-05-27T10:15:00;24.80;91.60
73643;DHT22;61938;48.652;9.292;2023-05-27T10:17:26;24.90;92.10
73643;DHT22;61938;48.652;9.292;2023-05-27T10:19:56;25.10;92.10
73643;DHT22;61938;48.652;9.292;2023-05-27T10:22:22;25.50;92.00
73643;DHT22;61938;48.652;9.292;2023-05-27T10:24:48;25.40;89.00
73643;DHT22;61938;48.652;9.292;2023-05-27T10:27:15;25.70;92.10
73643;DHT22;61938;48.652;9.292;2023-05-27T10:29:41;25.70;91.20
73643;DHT22;61938;48.652;9.292;2023-05-27T10:32:07;25.50;88.40
73643;DHT22;61938;48.652;9.292;2023-05-27T10:34:42;25.60;90.40
73643;DHT22;61938;48.652;9.292;2023-05-27T10:37:09;25.40;90.00
73643;DHT22;61938;48.652;9.292;2023-05-27T10:39:36;25.40;90.00
73643;DHT22;61938;48.652;9.292;2023-05-27T10:42:01;25.80;91.10
73643;DHT22;61938;48.652;9.292;2023-05-27T10:44:29;25.10;86.60
73643;DHT22;61938;48.652;9.292;2023-05-27T10:46:59;25.40;91.50
73643;DHT22;61938;48.652;9.292;2023-05-27T10:49:26;25.80;90.80
73643;DHT22;61938;48.652;9.292;2023-05-27T10:51:58;25.80;86.80
73643;DHT22;61938;48.652;9.292;2023-05-27T10:54:26;25.90;88.90
73643;DHT22;61938;48.652;9.292;2023-05-27T10:56:52;26.20;87.30
73643;DHT22;61938;48.652;9.292;2023-05-27T10:59:20;26.40;88.00
73643;DHT22;61938;48.652;9.292;2023-05-27T11:01:53;26.50;86.50
73643;DHT22;61938;48.652;9.292;2023-05-27T11:04:19;26.70;89.60
73643;DHT22;61938;48.652;9.292;2023-05-27T11:06:57;26.60;88.30
73643;DHT22;61938;48.652;9.292;2023-05-27T11:09:23;26.70;88.50
73643;DHT22;61938;48.652;9.292;2023-05-27T11:11:49;26.70;84.70
73643;DHT22;61938;48.652;9.292;2023-05-27T11:14:14;25.70;80.20
73643;DHT22;61938;48.652;9.292;2023-05-27T11:16:40;25.80;84.70
73643;DHT22;61938;48.652;9.292;2023-05-27T11:19:05;26.30;85.10
73643;DHT22;61938;48.652;9.292;2023-05-27T11:21:44;26.90;82.40
73643;DHT22;61938;48.652;9.292;2023-05-27T11:24:17;26.70;82.90
73643;DHT22;61938;48.652;9.292;2023-05-27T11:26:44;26.40;82.30
73643;DHT22;61938;48.652;9.292;2023-05-27T11:29:12;26.40;82.20
73643;DHT22;61938;48.652;9.292;2023-05-27T11:31:38;26.40;84.60
73643;DHT22;61938;48.652;9.292;2023-05-27T11:34:11;26.50;81.20
73643;DHT22;61938;48.652;9.292;2023-05-27T11:36:38;26.60;83.00
73643;DHT22;61938;48.652;9.292;2023-05-27T11:39:04;26.70;80.00
73643;DHT22;61938;48.652;9.292;2023-05-27T11:41:30;26.40;80.40
73643;DHT22;61938;48.652;9.292;2023-05-27T11:43:59;26.70;84.10
73643;DHT22;61938;48.652;9.292;2023-05-27T11:46:35;26.90;79.30
73643;DHT22;61938;48.652;9.292;2023-05-27T11:49:05;27.10;77.90
73643;DHT22;61938;48.652;9.292;2023-05-27T11:51:34;27.30;80.30
73643;DHT22;61938;48.652;9.292;2023-05-27T11:54:00;27.00;79.90
73643;DHT22;61938;48.652;9.292;2023-05-27T11:56:29;26.40;78.10
73643;DHT22;61938;48.652;9.292;2023-05-27T11:58:55;26.00;78.10
73643;DHT22;61938;48.652;9.292;2023-05-27T12:01:21;25.90;82.30
73643;DHT22;61938;48.652;9.292;2023-05-27T12:03:47;26.20;77.70
73643;DHT22;61938;48.652;9.292;2023-05-27T12:06:12;26.00;77.30
73643;DHT22;61938;48.652;9.292;2023-05-27T12:08:38;25.60;80.10
73643;DHT22;61938;48.652;9.292;2023-05-27T12:11:04;26.10;80.60
73643;DHT22;61938;48.652;9.292;2023-05-27T12:13:30;26.80;84.30
73643;DHT22;61938;48.652;9.292;2023-05-27T12:15:57;26.60;77.60
73643;DHT22;61938;48.652;9.292;2023-05-27T12:18:23;26.70;77.40
73643;DHT22;61938;48.652;9.292;2023-05-27T12:20:49;26.80;77.20
73643;DHT22;61938;48.652;9.292;2023-05-27T12:23:15;26.80;75.40
73643;DHT22;61938;48.652;9.292;2023-05-27T12:25:40;27.00;79.10
73643;DHT22;61938;48.652;9.292;2023-05-27T12:28:07;27.10;77.30
73643;DHT22;61938;48.652;9.292;2023-05-27T12:30:33;27.30;76.50
73643;DHT22;61938;48.652;9.292;2023-05-27T12:33:00;26.60;76.00
73643;DHT22;61938;48.652;9.292;2023-05-27T12:35:26;26.30;73.30
73643;DHT22;61938;48.652;9.292;2023-05-27T12:37:52;26.70;77.10
73643;DHT22;61938;48.652;9.292;2023-05-27T12:40:17;26.70;76.50
73643;DHT22;61938;48.652;9.292;2023-05-27T12:42:43;26.50;71.80
73643;DHT22;61938;48.652;9.292;2023-05-27T12:45:09;26.20;74.10
73643;DHT22;61938;48.652;9.292;2023-05-27T12:47:36;26.00;70.20
73643;DHT22;61938;48.652;9.292;2023-05-27T12:50:01;26.40;77.00
73643;DHT22;61938;48.652;9.292;2023-05-27T12:52:27;26.40;74.70
73643;DHT22;61938;48.652;9.292;2023-05-27T12:54:53;26.60;73.10
73643;DHT22;61938;48.652;9.292;2023-05-27T12:57:19;26.30;71.10
73643;DHT22;61938;48.652;9.292;2023-05-27T12:59:45;26.10;71.50
73643;DHT22;61938;48.652;9.292;2023-05-27T13:02:11;26.30;74.30
73643;DHT22;61938;48.652;9.292;2023-05-27T13:04:36;26.60;75.70
73643;DHT22;61938;48.652;9.292;2023-05-27T13:07:02;26.40;74.40
73643;DHT22;61938;48.652;9.292;2023-05-27T13:09:27;26.10;70.90
73643;DHT22;61938;48.652;9.292;2023-05-27T13:11:53;25.50;71.20
73643;DHT22;61938;48.652;9.292;2023-05-27T13:14:19;25.20;72.20
73643;DHT22;61938;48.652;9.292;2023-05-27T13:16:44;25.50;70.80
73643;DHT22;61938;48.652;9.292;2023-05-27T13:19:10;25.40;72.60
73643;DHT22;61938;48.652;9.292;2023-05-27T13:21:35;25.60;72.80
73643;DHT22;61938;48.652;9.292;2023-05-27T13:24:01;25.40;73.20
73643;DHT22;61938;48.652;9.292;2023-05-27T13:26:27;25.50;72.90
73643;DHT22;61938;48.652;9.292;2023-05-27T13:28:54;25.40;74.20
73643;DHT22;61938;48.652;9.292;2023-05-27T13:31:20;25.10;72.40
73643;DHT22;61938;48.652;9.292;2023-05-27T13:33:46;25.20;71.40
73643;DHT22;61938;48.652;9.292;2023-05-27T13:36:12;25.50;77.80
73643;DHT22;61938;48.652;9.292;2023-05-27T13:38:38;25.60;72.70
73643;DHT22;61938;48.652;9.292;2023-05-27T13:41:04;25.70;74.70
73643;DHT22;61938;48.652;9.292;2023-05-27T13:43:29;25.70;70.00
73643;DHT22;61938;48.652;9.292;2023-05-27T13:45:55;25.60;70.60
73643;DHT22;61938;48.652;9.292;2023-05-27T13:48:21;25.60;71.10
73643;DHT22;61938;48.652;9.292;2023-05-27T13:50:46;25.40;68.00
73643;DHT22;61938;48.652;9.292;2023-05-27T13:53:12;25.40;69.00
73643;DHT22;61938;48.652;9.292;2023-05-27T13:55:37;25.50;72.90
73643;DHT22;61938;48.652;9.292;2023-05-27T13:58:03;25.60;71.70
73643;DHT22;61938;48.652;9.292;2023-05-27T14:00:29;25.60;71.90
73643;DHT22;61938;48.652;9.292;2023-05-27T14:02:56;25.60;69.10
73643;DHT22;61938;48.652;9.292;2023-05-27T14:05:23;25.60;72.90
73643;DHT22;61938;48.652;9.292;2023-05-27T14:07:49;25.60;70.40
73643;DHT22;61938;48.652;9.292;2023-05-27T14:10:14;25.60;67.10
73643;DHT22;61938;48.652;9.292;2023-05-27T14:12:40;25.40;67.40
73643;DHT22;61938;48.652;9.292;2023-05-27T14:15:06;25.70;70.40
73643;DHT22;61938;48.652;9.292;2023-05-27T14:17:31;24.90;66.60
73643;DHT22;61938;48.652;9.292;2023-05-27T14:19:57;24.60;68.10
73643;DHT22;61938;48.652;9.292;2023-05-27T14:22:24;24.60;68.70
73643;DHT22;61938;48.652;9.292;2023-05-27T14:24:49;24.90;71.20
73643;DHT22;61938;48.652;9.292;2023-05-27T14:27:15;25.00;69.00
73643;DHT22;61938;48.652;9.292;2023-05-27T14:29:40;25.10;70.30
73643;DHT22;61938;48.652;9.292;2023-05-27T14:32:07;25.20;69.30
73643;DHT22;61938;48.652;9.292;2023-05-27T14:34:32;25.30;70.20
73643;DHT22;61938;48.652;9.292;2023-05-27T14:36:58;25.30;68.70
73643;DHT22;61938;48.652;9.292;2023-05-27T14:39:23;25.20;67.70
73643;DHT22;61938;48.652;9.292;2023-05-27T14:41:49;25.30;66.50
73643;DHT22;61938;48.652;9.292;2023-05-27T14:44:15;25.50;67.40
73643;DHT22;61938;48.652;9.292;2023-05-27T14:46:40;25.40;65.30
73643;DHT22;61938;48.652;9.292;2023-05-27T14:49:06;25.30;65.80
73643;DHT22;61938;48.652;9.292;2023-05-27T14:51:31;25.20;68.10
73643;DHT22;61938;48.652;9.292;2023-05-27T14:53:57;25.00;68.70
73643;DHT22;61938;48.652;9.292;2023-05-27T14:56:22;25.00;67.90
73643;DHT22;61938;48.652;9.292;2023-05-27T14:58:48;24.90;65.50
73643;DHT22;61938;48.652;9.292;2023-05-27T15:01:14;24.70;65.30
73643;DHT22;61938;48.652;9.292;2023-05-27T15:03:40;24.70;66.30
73643;DHT22;61938;48.652;9.292;2023-05-27T15:06:06;24.50;62.80
73643;DHT22;61938;48.652;9.292;2023-05-27T15:08:34;24.40;64.30
73643;DHT22;61938;48.652;9.292;2023-05-27T15:11:01;24.30;65.20
73643;DHT22;61938;48.652;9.292;2023-05-27T15:13:27;24.20;67.90
73643;DHT22;61938;48.652;9.292;2023-05-27T15:15:52;24.40;67.00
73643;DHT22;61938;48.652;9.292;2023-05-27T15:18:18;24.40;64.40
73643;DHT22;61938;48.652;9.292;2023-05-27T15:20:43;24.40;67.60
73643;DHT22;61938;48.652;9.292;2023-05-27T15:23:09;24.40;67.00
73643;DHT22;61938;48.652;9.292;2023-05-27T15:25:35;24.50;65.20
73643;DHT22;61938;48.652;9.292;2023-05-27T15:28:01;24.40;65.10